sensor_id;sensor_type;location;lat;lon;timestamp;P1;durP1;ratioP1;P2;durP2;ratioP2
20954;SDS011;10636;19.390;-99.256;2024-02-23T00:00:31;7.30;;;5.47;;
20954;SDS011;10636;19.390;-99.256;2024-02-23T00:03:02;6.50;;;5.40;;
20954;SDS011;10636;19.390;-99.256;2024-02-23T00:05:31;6.15;;;5.53;;
20954;SDS011;10636;19.390;-99.256;2024-02-23T00:08:00;8.32;;;5.63;;
20954;SDS011;10636;19.390;-99.256;2024-02-23T00:10:28;5.97;;;5.30;;
20954;SDS011;10636;19.390;-99.256;2024-02-23T00:12:58;7.13;;;5.70;;
20954;SDS011;10636;19.390;-99.256;2024-02-23T00:15:27;6.22;;;5.30;;
20954;SDS011;10636;19.390;-99.256;2024-02-23T00:17:56;7.13;;;5.30;;
20954;SDS011;10636;19.390;-99.256;2024-02-23T00:20:24;5.93;;;5.32;;
20954;SDS011;10636;19.390;-99.256;2024-02-23T00:22:53;6.03;;;5.43;;
20954;SDS011;10636;19.390;-99.256;2024-02-23T00:25:21;6.97;;;5.10;;
20954;SDS011;10636;19.390;-99.256;2024-02-23T00:27:50;6.88;;;5.25;;
20954;SDS011;10636;19.390;-99.256;2024-02-23T00:30:20;6.55;;;5.18;;
20954;SDS011;10636;19.390;-99.256;2024-02-23T00:32:49;7.45;;;5.18;;
20954;SDS011;10636;19.390;-99.256;2024-02-23T00:35:17;7.25;;;4.90;;
20954;SDS011;10636;19.390;-99.256;2024-02-23T00:37:46;5.63;;;5.00;;
20954;SDS011;10636;19.390;-99.256;2024-02-23T00:40:15;6.20;;;4.80;;
20954;SDS011;10636;19.390;-99.256;2024-02-23T00:42:43;6.28;;;4.80;;
20954;SDS011;10636;19.390;-99.256;2024-02-23T00:45:12;5.40;;;4.50;;
20954;SDS011;10636;19.390;-99.256;2024-02-23T00:47:42;5.00;;;4.40;;
20954;SDS011;10636;19.390;-99.256;2024-02-23T00:50:12;5.57;;;4.78;;
20954;SDS011;10636;19.390;-99.256;2024-02-23T00:52:41;7.75;;;4.30;;
20954;SDS011;10636;19.390;-99.256;2024-02-23T00:55:10;7.70;;;4.90;;
20954;SDS011;10636;19.390;-99.256;2024-02-23T00:57:41;5.72;;;4.55;;
20954;SDS011;10636;19.390;-99.256;2024-02-23T01:00:15;5.25;;;4.50;;
20954;SDS011;10636;19.390;-99.256;2024-02-23T01:02:45;5.55;;;4.45;;
20954;SDS011;10636;19.390;-99.256;2024-02-23T01:05:14;5.15;;;4.03;;
20954;SDS011;10636;19.390;-99.256;2024-02-23T01:07:43;5.47;;;4.40;;
20954;SDS011;10636;19.390;-99.256;2024-02-23T01:10:12;6.07;;;4.35;;
20954;SDS011;10636;19.390;-99.256;2024-02-23T01:12:40;5.07;;;4.25;;
20954;SDS011;10636;19.390;-99.256;2024-02-23T01:15:09;5.50;;;4.60;;
20954;SDS011;10636;19.390;-99.256;2024-02-23T01:17:38;5.78;;;3.95;;
20954;SDS011;10636;19.390;-99.256;2024-02-23T01:20:08;4.90;;;4.15;;
20954;SDS011;10636;19.390;-99.256;2024-02-23T01:22:37;6.43;;;4.40;;
20954;SDS011;10636;19.390;-99.256;2024-02-23T01:25:06;5.28;;;4.10;;
20954;SDS011;10636;19.390;-99.256;2024-02-23T01:27:35;6.40;;;4.28;;
20954;SDS011;10636;19.390;-99.256;2024-02-23T01:30:06;6.72;;;4.22;;
20954;SDS011;10636;19.390;-99.256;2024-02-23T01:32:35;5.50;;;4.15;;
20954;SDS011;10636;19.390;-99.256;2024-02-23T01:35:05;6.95;;;4.30;;
20954;SDS011;10636;19.390;-99.256;2024-02-23T01:37:36;6.28;;;4.43;;
20954;SDS011;10636;19.390;-99.256;2024-02-23T01:40:05;7.55;;;4.68;;
20954;SDS011;10636;19.390;-99.256;2024-02-23T01:42:34;5.82;;;4.50;;
20954;SDS011;10636;19.390;-99.256;2024-02-23T01:45:03;6.88;;;4.95;;
20954;SDS011;10636;19.390;-99.256;2024-02-23T01:47:32;7.03;;;5.05;;
20954;SDS011;10636;19.390;-99.256;2024-02-23T01:50:04;7.25;;;5.30;;
20954;SDS011;10636;19.390;-99.256;2024-02-23T01:52:36;8.82;;;4.97;;
20954;SDS011;10636;19.390;-99.256;2024-02-23T01:55:05;5.10;;;4.60;;
20954;SDS011;10636;19.390;-99.256;2024-02-23T01:57:34;8.55;;;6.00;;
20954;SDS011;10636;19.390;-99.256;2024-02-23T02:00:03;7.50;;;5.80;;
20954;SDS011;10636;19.390;-99.256;2024-02-23T02:02:33;8.13;;;5.85;;
20954;SDS011;10636;19.390;-99.256;2024-02-23T02:05:02;8.88;;;6.13;;
20954;SDS011;10636;19.390;-99.256;2024-02-23T02:07:32;10.00;;;6.45;;
20954;SDS011;10636;19.390;-99.256;2024-02-23T02:10:03;7.70;;;6.35;;
20954;SDS011;10636;19.390;-99.256;2024-02-23T02:12:34;9.00;;;6.43;;
20954;SDS011;10636;19.390;-99.256;2024-02-23T02:15:03;9.48;;;6.70;;
20954;SDS011;10636;19.390;-99.256;2024-02-23T02:17:35;10.85;;;7.68;;
20954;SDS011;10636;19.390;-99.256;2024-02-23T02:20:04;10.30;;;8.05;;
20954;SDS011;10636;19.390;-99.256;2024-02-23T02:22:37;13.68;;;8.10;;
20954;SDS011;10636;19.390;-99.256;2024-02-23T02:25:08;10.32;;;7.05;;
20954;SDS011;10636;19.390;-99.256;2024-02-23T02:27:36;13.13;;;7.45;;
20954;SDS011;10636;19.390;-99.256;2024-02-23T02:30:05;9.50;;;7.15;;
20954;SDS011;10636;19.390;-99.256;2024-02-23T02:32:35;11.82;;;7.13;;
20954;SDS011;10636;19.390;-99.256;2024-02-23T02:35:04;12.98;;;7.15;;
20954;SDS011;10636;19.390;-99.256;2024-02-23T02:37:33;11.38;;;7.18;;
20954;SDS011;10636;19.390;-99.256;2024-02-23T02:40:02;13.20;;;7.30;;
20954;SDS011;10636;19.390;-99.256;2024-02-23T02:42:33;12.25;;;7.55;;
20954;SDS011;10636;19.390;-99.256;2024-02-23T02:45:02;12.35;;;7.38;;
20954;SDS011;10636;19.390;-99.256;2024-02-23T02:47:31;12.68;;;7.30;;
20954;SDS011;10636;19.390;-99.256;2024-02-23T02:50:02;11.85;;;6.82;;
20954;SDS011;10636;19.390;-99.256;2024-02-23T02:52:32;11.65;;;7.15;;
20954;SDS011;10636;19.390;-99.256;2024-02-23T02:55:20;10.77;;;7.10;;
20954;SDS011;10636;19.390;-99.256;2024-02-23T02:57:51;9.00;;;6.47;;
20954;SDS011;10636;19.390;-99.256;2024-02-23T03:00:21;9.82;;;6.75;;
20954;SDS011;10636;19.390;-99.256;2024-02-23T03:02:49;8.82;;;6.82;;
20954;SDS011;10636;19.390;-99.256;2024-02-23T03:05:23;11.35;;;7.25;;
20954;SDS011;10636;19.390;-99.256;2024-02-23T03:07:52;10.30;;;7.07;;
20954;SDS011;10636;19.390;-99.256;2024-02-23T03:10:22;11.90;;;8.00;;
20954;SDS011;10636;19.390;-99.256;2024-02-23T03:12:52;10.55;;;7.53;;
20954;SDS011;10636;19.390;-99.256;2024-02-23T03:15:21;11.13;;;7.25;;
20954;SDS011;10636;19.390;-99.256;2024-02-23T03:17:51;15.13;;;7.55;;
20954;SDS011;10636;19.390;-99.256;2024-02-23T03:20:21;11.48;;;7.43;;
20954;SDS011;10636;19.390;-99.256;2024-02-23T03:22:49;10.27;;;7.25;;
20954;SDS011;10636;19.390;-99.256;2024-02-23T03:25:18;13.70;;;8.13;;
20954;SDS011;10636;19.390;-99.256;2024-02-23T03:27:50;11.60;;;8.02;;
20954;SDS011;10636;19.390;-99.256;2024-02-23T03:30:20;11.48;;;7.78;;
20954;SDS011;10636;19.390;-99.256;2024-02-23T03:32:49;10.25;;;8.07;;
20954;SDS011;10636;19.390;-99.256;2024-02-23T03:35:18;12.80;;;6.55;;
20954;SDS011;10636;19.390;-99.256;2024-02-23T03:37:56;10.13;;;7.30;;
20954;SDS011;10636;19.390;-99.256;2024-02-23T03:40:25;10.13;;;6.82;;
20954;SDS011;10636;19.390;-99.256;2024-02-23T03:42:55;10.10;;;6.40;;
20954;SDS011;10636;19.390;-99.256;2024-02-23T03:45:29;8.73;;;6.40;;
20954;SDS011;10636;19.390;-99.256;2024-02-23T03:47:59;10.23;;;6.45;;
20954;SDS011;10636;19.390;-99.256;2024-02-23T03:50:28;11.80;;;6.70;;
20954;SDS011;10636;19.390;-99.256;2024-02-23T03:52:57;9.52;;;6.72;;
20954;SDS011;10636;19.390;-99.256;2024-02-23T03:55:29;8.77;;;6.10;;
20954;SDS011;10636;19.390;-99.256;2024-02-23T03:57:59;7.82;;;6.43;;
20954;SDS011;10636;19.390;-99.256;2024-02-23T04:00:30;7.80;;;6.63;;
20954;SDS011;10636;19.390;-99.256;2024-02-23T04:03:00;11.85;;;6.60;;
20954;SDS011;10636;19.390;-99.256;2024-02-23T04:05:34;8.57;;;6.40;;
20954;SDS011;10636;19.390;-99.256;2024-02-23T04:08:04;9.07;;;7.00;;
20954;SDS011;10636;19.390;-99.256;2024-02-23T04:10:34;8.98;;;6.38;;
20954;SDS011;10636;19.390;-99.256;2024-02-23T04:13:04;9.18;;;6.60;;
20954;SDS011;10636;19.390;-99.256;2024-02-23T04:15:33;9.80;;;6.57;;
20954;SDS011;10636;19.390;-99.256;2024-02-23T04:18:05;8.70;;;6.63;;
20954;SDS011;10636;19.390;-99.256;2024-02-23T04:20:33;7.55;;;6.75;;
20954;SDS011;10636;19.390;-99.256;2024-02-23T04:23:02;9.38;;;7.25;;
20954;SDS011;10636;19.390;-99.256;2024-02-23T04:25:31;9.93;;;7.30;;
20954;SDS011;10636;19.390;-99.256;2024-02-23T04:27:59;9.30;;;7.50;;
20954;SDS011;10636;19.390;-99.256;2024-02-23T04:30:30;10.45;;;7.50;;
20954;SDS011;10636;19.390;-99.256;2024-02-23T04:32:59;14.02;;;7.97;;
20954;SDS011;10636;19.390;-99.256;2024-02-23T04:35:28;8.50;;;7.63;;
20954;SDS011;10636;19.390;-99.256;2024-02-23T04:37:56;10.60;;;7.78;;
20954;SDS011;10636;19.390;-99.256;2024-02-23T04:40:25;9.45;;;7.68;;
20954;SDS011;10636;19.390;-99.256;2024-02-23T04:42:53;8.93;;;7.57;;
20954;SDS011;10636;19.390;-99.256;2024-02-23T04:45:22;9.05;;;7.45;;
20954;SDS011;10636;19.390;-99.256;2024-02-23T04:47:52;10.82;;;7.78;;
20954;SDS011;10636;19.390;-99.256;2024-02-23T04:50:21;8.57;;;7.47;;
20954;SDS011;10636;19.390;-99.256;2024-02-23T04:52:49;10.15;;;6.72;;
20954;SDS011;10636;19.390;-99.256;2024-02-23T04:55:18;9.85;;;7.63;;
20954;SDS011;10636;19.390;-99.256;2024-02-23T04:57:46;9.07;;;7.30;;
20954;SDS011;10636;19.390;-99.256;2024-02-23T05:00:15;7.80;;;6.97;;
20954;SDS011;10636;19.390;-99.256;2024-02-23T05:02:44;8.05;;;7.25;;
20954;SDS011;10636;19.390;-99.256;2024-02-23T05:05:17;9.68;;;6.90;;
20954;SDS011;10636;19.390;-99.256;2024-02-23T05:07:49;8.73;;;6.90;;
20954;SDS011;10636;19.390;-99.256;2024-02-23T05:10:18;9.00;;;6.80;;
20954;SDS011;10636;19.390;-99.256;2024-02-23T05:12:49;8.43;;;6.40;;
20954;SDS011;10636;19.390;-99.256;2024-02-23T05:15:21;8.43;;;6.80;;
20954;SDS011;10636;19.390;-99.256;2024-02-23T05:17:49;9.52;;;6.28;;
20954;SDS011;10636;19.390;-99.256;2024-02-23T05:20:20;7.03;;;6.32;;
20954;SDS011;10636;19.390;-99.256;2024-02-23T05:22:48;7.07;;;6.32;;
20954;SDS011;10636;19.390;-99.256;2024-02-23T05:25:17;7.35;;;6.65;;
20954;SDS011;10636;19.390;-99.256;2024-02-23T05:27:45;7.28;;;6.32;;
20954;SDS011;10636;19.390;-99.256;2024-02-23T05:30:14;8.30;;;6.13;;
20954;SDS011;10636;19.390;-99.256;2024-02-23T05:32:43;7.75;;;6.18;;
20954;SDS011;10636;19.390;-99.256;2024-02-23T05:35:12;7.57;;;6.05;;
20954;SDS011;10636;19.390;-99.256;2024-02-23T05:37:43;9.45;;;6.32;;
20954;SDS011;10636;19.390;-99.256;2024-02-23T05:40:14;6.60;;;6.00;;
20954;SDS011;10636;19.390;-99.256;2024-02-23T05:42:47;7.95;;;6.10;;
20954;SDS011;10636;19.390;-99.256;2024-02-23T05:45:19;6.70;;;6.05;;
20954;SDS011;10636;19.390;-99.256;2024-02-23T05:47:54;6.60;;;6.00;;
20954;SDS011;10636;19.390;-99.256;2024-02-23T05:50:26;7.57;;;5.70;;
20954;SDS011;10636;19.390;-99.256;2024-02-23T05:53:03;7.97;;;6.35;;
20954;SDS011;10636;19.390;-99.256;2024-02-23T05:55:44;6.22;;;5.30;;
20954;SDS011;10636;19.390;-99.256;2024-02-23T05:58:22;6.40;;;5.60;;
20954;SDS011;10636;19.390;-99.256;2024-02-23T06:00:53;6.28;;;5.68;;
20954;SDS011;10636;19.390;-99.256;2024-02-23T06:03:21;6.68;;;5.47;;
20954;SDS011;10636;19.390;-99.256;2024-02-23T06:05:50;8.63;;;5.70;;
20954;SDS011;10636;19.390;-99.256;2024-02-23T06:08:21;5.80;;;5.15;;
20954;SDS011;10636;19.390;-99.256;2024-02-23T06:10:49;5.47;;;4.93;;
20954;SDS011;10636;19.390;-99.256;2024-02-23T06:13:18;5.43;;;4.93;;
20954;SDS011;10636;19.390;-99.256;2024-02-23T06:15:46;6.28;;;5.18;;
20954;SDS011;10636;19.390;-99.256;2024-02-23T06:18:15;6.07;;;5.47;;
20954;SDS011;10636;19.390;-99.256;2024-02-23T06:20:43;6.20;;;5.18;;
20954;SDS011;10636;19.390;-99.256;2024-02-23T06:23:12;5.47;;;4.97;;
20954;SDS011;10636;19.390;-99.256;2024-02-23T06:25:42;5.75;;;5.15;;
20954;SDS011;10636;19.390;-99.256;2024-02-23T06:28:10;5.97;;;5.03;;
20954;SDS011;10636;19.390;-99.256;2024-02-23T06:30:39;6.97;;;5.30;;
20954;SDS011;10636;19.390;-99.256;2024-02-23T06:33:07;5.88;;;5.28;;
20954;SDS011;10636;19.390;-99.256;2024-02-23T06:35:36;5.88;;;5.00;;
20954;SDS011;10636;19.390;-99.256;2024-02-23T06:38:05;5.47;;;4.97;;
20954;SDS011;10636;19.390;-99.256;2024-02-23T06:40:33;5.75;;;5.07;;
20954;SDS011;10636;19.390;-99.256;2024-02-23T06:43:04;7.90;;;4.50;;
20954;SDS011;10636;19.390;-99.256;2024-02-23T06:45:32;5.32;;;4.82;;
20954;SDS011;10636;19.390;-99.256;2024-02-23T06:48:01;5.40;;;4.45;;
20954;SDS011;10636;19.390;-99.256;2024-02-23T06:50:29;5.40;;;4.88;;
20954;SDS011;10636;19.390;-99.256;2024-02-23T06:52:58;5.53;;;5.03;;
20954;SDS011;10636;19.390;-99.256;2024-02-23T06:55:26;5.47;;;4.43;;
20954;SDS011;10636;19.390;-99.256;2024-02-23T06:57:55;5.18;;;4.53;;
20954;SDS011;10636;19.390;-99.256;2024-02-23T07:00:25;5.65;;;4.72;;
20954;SDS011;10636;19.390;-99.256;2024-02-23T07:02:54;5.47;;;4.90;;
20954;SDS011;10636;19.390;-99.256;2024-02-23T07:05:24;5.70;;;4.90;;
20954;SDS011;10636;19.390;-99.256;2024-02-23T07:07:53;5.55;;;5.03;;
20954;SDS011;10636;19.390;-99.256;2024-02-23T07:10:21;6.45;;;4.97;;
20954;SDS011;10636;19.390;-99.256;2024-02-23T07:12:51;4.93;;;4.43;;
20954;SDS011;10636;19.390;-99.256;2024-02-23T07:15:19;5.38;;;4.70;;
20954;SDS011;10636;19.390;-99.256;2024-02-23T07:17:50;5.38;;;4.60;;
20954;SDS011;10636;19.390;-99.256;2024-02-23T07:20:18;5.10;;;4.60;;
20954;SDS011;10636;19.390;-99.256;2024-02-23T07:22:47;5.63;;;4.18;;
20954;SDS011;10636;19.390;-99.256;2024-02-23T07:25:16;5.07;;;4.55;;
20954;SDS011;10636;19.390;-99.256;2024-02-23T07:27:46;5.15;;;4.65;;
20954;SDS011;10636;19.390;-99.256;2024-02-23T07:30:15;4.82;;;4.40;;
20954;SDS011;10636;19.390;-99.256;2024-02-23T07:32:44;4.45;;;4.05;;
20954;SDS011;10636;19.390;-99.256;2024-02-23T07:35:15;4.80;;;4.35;;
20954;SDS011;10636;19.390;-99.256;2024-02-23T07:37:46;4.88;;;4.30;;
20954;SDS011;10636;19.390;-99.256;2024-02-23T07:40:17;5.15;;;4.40;;
20954;SDS011;10636;19.390;-99.256;2024-02-23T07:42:46;4.78;;;4.38;;
20954;SDS011;10636;19.390;-99.256;2024-02-23T07:45:14;4.65;;;4.22;;
20954;SDS011;10636;19.390;-99.256;2024-02-23T07:47:43;4.78;;;4.32;;
20954;SDS011;10636;19.390;-99.256;2024-02-23T07:50:11;4.22;;;3.88;;
20954;SDS011;10636;19.390;-99.256;2024-02-23T07:52:43;4.50;;;4.10;;
20954;SDS011;10636;19.390;-99.256;2024-02-23T07:55:10;5.03;;;4.10;;
20954;SDS011;10636;19.390;-99.256;2024-02-23T07:57:39;4.93;;;4.43;;
20954;SDS011;10636;19.390;-99.256;2024-02-23T08:00:07;4.32;;;4.03;;
20954;SDS011;10636;19.390;-99.256;2024-02-23T08:02:37;4.70;;;4.22;;
20954;SDS011;10636;19.390;-99.256;2024-02-23T08:05:06;4.55;;;4.00;;
20954;SDS011;10636;19.390;-99.256;2024-02-23T08:07:35;5.00;;;4.50;;
20954;SDS011;10636;19.390;-99.256;2024-02-23T08:10:06;4.78;;;4.35;;
20954;SDS011;10636;19.390;-99.256;2024-02-23T08:12:35;4.57;;;4.20;;
20954;SDS011;10636;19.390;-99.256;2024-02-23T08:15:03;5.18;;;4.20;;
20954;SDS011;10636;19.390;-99.256;2024-02-23T08:17:33;4.57;;;4.18;;
20954;SDS011;10636;19.390;-99.256;2024-02-23T08:20:01;4.57;;;4.18;;
20954;SDS011;10636;19.390;-99.256;2024-02-23T08:22:31;5.50;;;4.47;;
20954;SDS011;10636;19.390;-99.256;2024-02-23T08:25:00;4.95;;;4.45;;
20954;SDS011;10636;19.390;-99.256;2024-02-23T08:27:30;5.53;;;4.65;;
20954;SDS011;10636;19.390;-99.256;2024-02-23T08:29:58;5.18;;;4.68;;
20954;SDS011;10636;19.390;-99.256;2024-02-23T08:32:27;5.00;;;4.50;;
20954;SDS011;10636;19.390;-99.256;2024-02-23T08:34:55;5.72;;;5.07;;
20954;SDS011;10636;19.390;-99.256;2024-02-23T08:37:25;6.22;;;4.72;;
20954;SDS011;10636;19.390;-99.256;2024-02-23T08:39:53;5.22;;;4.70;;
20954;SDS011;10636;19.390;-99.256;2024-02-23T08:42:22;5.88;;;5.18;;
20954;SDS011;10636;19.390;-99.256;2024-02-23T08:44:52;5.47;;;4.97;;
20954;SDS011;10636;19.390;-99.256;2024-02-23T08:47:21;5.32;;;4.82;;
20954;SDS011;10636;19.390;-99.256;2024-02-23T08:49:50;6.53;;;5.38;;
20954;SDS011;10636;19.390;-99.256;2024-02-23T08:52:18;6.28;;;5.68;;
20954;SDS011;10636;19.390;-99.256;2024-02-23T08:54:47;7.15;;;5.75;;
20954;SDS011;10636;19.390;-99.256;2024-02-23T08:57:15;6.43;;;5.82;;
20954;SDS011;10636;19.390;-99.256;2024-02-23T08:59:45;7.30;;;6.22;;
20954;SDS011;10636;19.390;-99.256;2024-02-23T09:02:15;6.90;;;6.20;;
20954;SDS011;10636;19.390;-99.256;2024-02-23T09:04:47;7.40;;;6.57;;
20954;SDS011;10636;19.390;-99.256;2024-02-23T09:07:16;7.57;;;6.35;;
20954;SDS011;10636;19.390;-99.256;2024-02-23T09:09:45;7.10;;;6.40;;
20954;SDS011;10636;19.390;-99.256;2024-02-23T09:12:14;7.50;;;6.65;;
20954;SDS011;10636;19.390;-99.256;2024-02-23T09:14:42;7.25;;;6.47;;
20954;SDS011;10636;19.390;-99.256;2024-02-23T09:17:11;8.10;;;7.30;;
20954;SDS011;10636;19.390;-99.256;2024-02-23T09:19:41;7.95;;;7.20;;
20954;SDS011;10636;19.390;-99.256;2024-02-23T09:22:10;8.35;;;6.82;;
20954;SDS011;10636;19.390;-99.256;2024-02-23T09:24:39;8.40;;;7.07;;
20954;SDS011;10636;19.390;-99.256;2024-02-23T09:27:07;7.88;;;7.18;;
20954;SDS011;10636;19.390;-99.256;2024-02-23T09:29:36;8.95;;;8.05;;
20954;SDS011;10636;19.390;-99.256;2024-02-23T09:32:05;8.77;;;7.88;;
20954;SDS011;10636;19.390;-99.256;2024-02-23T09:34:34;8.95;;;8.05;;
20954;SDS011;10636;19.390;-99.256;2024-02-23T09:37:04;8.68;;;7.82;;
20954;SDS011;10636;19.390;-99.256;2024-02-23T09:39:32;8.98;;;7.80;;
20954;SDS011;10636;19.390;-99.256;2024-02-23T09:42:01;9.25;;;7.55;;
20954;SDS011;10636;19.390;-99.256;2024-02-23T09:44:32;11.82;;;8.60;;
20954;SDS011;10636;19.390;-99.256;2024-02-23T09:47:01;8.70;;;7.80;;
20954;SDS011;10636;19.390;-99.256;2024-02-23T09:49:34;9.48;;;8.45;;
20954;SDS011;10636;19.390;-99.256;2024-02-23T09:52:07;9.30;;;8.35;;
20954;SDS011;10636;19.390;-99.256;2024-02-23T09:54:36;11.85;;;8.15;;
20954;SDS011;10636;19.390;-99.256;2024-02-23T09:57:06;9.90;;;8.07;;
20954;SDS011;10636;19.390;-99.256;2024-02-23T09:59:35;10.13;;;8.60;;
20954;SDS011;10636;19.390;-99.256;2024-02-23T10:02:05;10.23;;;8.45;;
20954;SDS011;10636;19.390;-99.256;2024-02-23T10:04:38;9.25;;;8.35;;
20954;SDS011;10636;19.390;-99.256;2024-02-23T10:07:08;10.10;;;8.85;;
20954;SDS011;10636;19.390;-99.256;2024-02-23T10:09:37;9.40;;;8.50;;
20954;SDS011;10636;19.390;-99.256;2024-02-23T10:12:06;9.88;;;8.45;;
20954;SDS011;10636;19.390;-99.256;2024-02-23T10:14:35;10.10;;;9.10;;
20954;SDS011;10636;19.390;-99.256;2024-02-23T10:17:03;9.80;;;8.90;;
20954;SDS011;10636;19.390;-99.256;2024-02-23T10:19:34;9.68;;;8.77;;
20954;SDS011;10636;19.390;-99.256;2024-02-23T10:22:03;9.23;;;8.32;;
20954;SDS011;10636;19.390;-99.256;2024-02-23T10:24:34;12.02;;;8.75;;
20954;SDS011;10636;19.390;-99.256;2024-02-23T10:27:04;9.05;;;8.13;;
20954;SDS011;10636;19.390;-99.256;2024-02-23T10:29:32;9.40;;;8.43;;
20954;SDS011;10636;19.390;-99.256;2024-02-23T10:32:00;9.30;;;8.40;;
20954;SDS011;10636;19.390;-99.256;2024-02-23T10:34:30;9.95;;;7.57;;
20954;SDS011;10636;19.390;-99.256;2024-02-23T10:37:01;9.00;;;8.10;;
20954;SDS011;10636;19.390;-99.256;2024-02-23T10:39:35;8.85;;;7.95;;
20954;SDS011;10636;19.390;-99.256;2024-02-23T10:42:05;8.80;;;7.90;;
20954;SDS011;10636;19.390;-99.256;2024-02-23T10:44:37;8.50;;;7.70;;
20954;SDS011;10636;19.390;-99.256;2024-02-23T10:47:07;9.13;;;8.23;;
20954;SDS011;10636;19.390;-99.256;2024-02-23T10:49:36;8.30;;;7.50;;
20954;SDS011;10636;19.390;-99.256;2024-02-23T10:52:13;7.95;;;7.25;;
20954;SDS011;10636;19.390;-99.256;2024-02-23T10:54:46;8.32;;;7.53;;
20954;SDS011;10636;19.390;-99.256;2024-02-23T10:57:16;8.38;;;7.57;;
20954;SDS011;10636;19.390;-99.256;2024-02-23T10:59:45;7.90;;;7.10;;
20954;SDS011;10636;19.390;-99.256;2024-02-23T11:02:15;7.40;;;6.78;;
20954;SDS011;10636;19.390;-99.256;2024-02-23T11:04:48;7.68;;;6.97;;
20954;SDS011;10636;19.390;-99.256;2024-02-23T11:07:18;7.68;;;6.97;;
20954;SDS011;10636;19.390;-99.256;2024-02-23T11:09:51;7.45;;;6.75;;
20954;SDS011;10636;19.390;-99.256;2024-02-23T11:12:23;7.70;;;7.00;;
20954;SDS011;10636;19.390;-99.256;2024-02-23T11:14:56;7.30;;;6.60;;
20954;SDS011;10636;19.390;-99.256;2024-02-23T11:17:28;7.05;;;6.35;;
20954;SDS011;10636;19.390;-99.256;2024-02-23T11:19:58;6.90;;;6.18;;
20954;SDS011;10636;19.390;-99.256;2024-02-23T11:22:30;7.43;;;6.43;;
20954;SDS011;10636;19.390;-99.256;2024-02-23T11:25:01;6.78;;;6.05;;
20954;SDS011;10636;19.390;-99.256;2024-02-23T11:27:31;6.53;;;5.93;;
20954;SDS011;10636;19.390;-99.256;2024-02-23T11:30:02;6.38;;;5.80;;
20954;SDS011;10636;19.390;-99.256;2024-02-23T11:32:37;6.18;;;5.57;;
20954;SDS011;10636;19.390;-99.256;2024-02-23T11:35:07;7.30;;;5.78;;
20954;SDS011;10636;19.390;-99.256;2024-02-23T11:37:45;6.22;;;5.63;;
20954;SDS011;10636;19.390;-99.256;2024-02-23T11:40:17;6.05;;;5.45;;
20954;SDS011;10636;19.390;-99.256;2024-02-23T11:42:46;6.22;;;5.63;;
20954;SDS011;10636;19.390;-99.256;2024-02-23T11:45:15;6.32;;;5.40;;
20954;SDS011;10636;19.390;-99.256;2024-02-23T11:47:43;6.20;;;5.60;;
20954;SDS011;10636;19.390;-99.256;2024-02-23T11:50:13;5.53;;;5.03;;
20954;SDS011;10636;19.390;-99.256;2024-02-23T11:52:45;5.80;;;5.20;;
20954;SDS011;10636;19.390;-99.256;2024-02-23T11:55:19;7.68;;;6.90;;
20954;SDS011;10636;19.390;-99.256;2024-02-23T11:57:48;11.15;;;10.13;;
20954;SDS011;10636;19.390;-99.256;2024-02-23T12:00:17;10.75;;;9.85;;
20954;SDS011;10636;19.390;-99.256;2024-02-23T12:02:46;10.90;;;9.90;;
20954;SDS011;10636;19.390;-99.256;2024-02-23T12:05:15;10.73;;;9.77;;
20954;SDS011;10636;19.390;-99.256;2024-02-23T12:07:44;10.32;;;9.27;;
20954;SDS011;10636;19.390;-99.256;2024-02-23T12:10:13;9.63;;;8.82;;
20954;SDS011;10636;19.390;-99.256;2024-02-23T12:12:43;9.23;;;8.27;;
20954;SDS011;10636;19.390;-99.256;2024-02-23T12:15:12;8.85;;;7.43;;
20954;SDS011;10636;19.390;-99.256;2024-02-23T12:17:49;8.35;;;7.43;;
20954;SDS011;10636;19.390;-99.256;2024-02-23T12:20:20;8.88;;;7.22;;
20954;SDS011;10636;19.390;-99.256;2024-02-23T12:22:49;7.70;;;6.65;;
20954;SDS011;10636;19.390;-99.256;2024-02-23T12:25:21;8.48;;;6.40;;
20954;SDS011;10636;19.390;-99.256;2024-02-23T12:27:55;6.82;;;6.13;;
20954;SDS011;10636;19.390;-99.256;2024-02-23T12:30:24;6.32;;;5.72;;
20954;SDS011;10636;19.390;-99.256;2024-02-23T12:33:02;7.28;;;5.80;;
20954;SDS011;10636;19.390;-99.256;2024-02-23T12:35:33;7.70;;;5.60;;
20954;SDS011;10636;19.390;-99.256;2024-02-23T12:38:02;6.93;;;5.70;;
20954;SDS011;10636;19.390;-99.256;2024-02-23T12:40:31;6.43;;;5.22;;
20954;SDS011;10636;19.390;-99.256;2024-02-23T12:43:03;6.30;;;5.10;;
20954;SDS011;10636;19.390;-99.256;2024-02-23T12:45:32;6.40;;;5.07;;
20954;SDS011;10636;19.390;-99.256;2024-02-23T12:48:01;5.55;;;4.63;;
20954;SDS011;10636;19.390;-99.256;2024-02-23T12:50:29;5.50;;;4.68;;
20954;SDS011;10636;19.390;-99.256;2024-02-23T12:53:01;7.82;;;4.70;;
20954;SDS011;10636;19.390;-99.256;2024-02-23T12:55:29;5.90;;;4.43;;
20954;SDS011;10636;19.390;-99.256;2024-02-23T12:57:58;7.32;;;4.80;;
20954;SDS011;10636;19.390;-99.256;2024-02-23T13:00:28;4.90;;;4.47;;
20954;SDS011;10636;19.390;-99.256;2024-02-23T13:02:56;6.03;;;5.10;;
20954;SDS011;10636;19.390;-99.256;2024-02-23T13:05:25;5.78;;;5.28;;
20954;SDS011;10636;19.390;-99.256;2024-02-23T13:07:53;6.68;;;5.40;;
20954;SDS011;10636;19.390;-99.256;2024-02-23T13:10:22;8.20;;;6.20;;
20954;SDS011;10636;19.390;-99.256;2024-02-23T13:12:52;8.15;;;6.13;;
20954;SDS011;10636;19.390;-99.256;2024-02-23T13:15:21;9.60;;;6.50;;
20954;SDS011;10636;19.390;-99.256;2024-02-23T13:17:53;8.68;;;6.30;;
20954;SDS011;10636;19.390;-99.256;2024-02-23T13:20:22;11.10;;;7.10;;
20954;SDS011;10636;19.390;-99.256;2024-02-23T13:22:51;9.25;;;6.50;;
20954;SDS011;10636;19.390;-99.256;2024-02-23T13:25:22;8.57;;;6.97;;
20954;SDS011;10636;19.390;-99.256;2024-02-23T13:27:51;9.15;;;7.00;;
20954;SDS011;10636;19.390;-99.256;2024-02-23T13:30:19;12.25;;;7.07;;
20954;SDS011;10636;19.390;-99.256;2024-02-23T13:32:47;8.57;;;7.78;;
20954;SDS011;10636;19.390;-99.256;2024-02-23T13:35:18;10.10;;;7.82;;
20954;SDS011;10636;19.390;-99.256;2024-02-23T13:37:47;10.35;;;8.20;;
20954;SDS011;10636;19.390;-99.256;2024-02-23T13:40:16;13.23;;;9.40;;
20954;SDS011;10636;19.390;-99.256;2024-02-23T13:42:44;10.95;;;8.98;;
20954;SDS011;10636;19.390;-99.256;2024-02-23T13:45:15;11.90;;;8.77;;
20954;SDS011;10636;19.390;-99.256;2024-02-23T13:47:44;10.52;;;8.60;;
20954;SDS011;10636;19.390;-99.256;2024-02-23T13:50:27;11.57;;;8.23;;
20954;SDS011;10636;19.390;-99.256;2024-02-23T13:52:56;10.55;;;8.60;;
20954;SDS011;10636;19.390;-99.256;2024-02-23T13:55:25;11.55;;;8.15;;
20954;SDS011;10636;19.390;-99.256;2024-02-23T13:57:54;8.98;;;7.65;;
20954;SDS011;10636;19.390;-99.256;2024-02-23T14:00:22;13.85;;;7.95;;
20954;SDS011;10636;19.390;-99.256;2024-02-23T14:02:51;12.23;;;8.27;;
20954;SDS011;10636;19.390;-99.256;2024-02-23T14:05:19;9.35;;;8.30;;
20954;SDS011;10636;19.390;-99.256;2024-02-23T14:07:52;9.90;;;7.97;;
20954;SDS011;10636;19.390;-99.256;2024-02-23T14:10:21;13.65;;;8.68;;
20954;SDS011;10636;19.390;-99.256;2024-02-23T14:12:50;12.45;;;8.32;;
20954;SDS011;10636;19.390;-99.256;2024-02-23T14:15:20;13.35;;;8.57;;
20954;SDS011;10636;19.390;-99.256;2024-02-23T14:17:49;10.60;;;8.52;;
20954;SDS011;10636;19.390;-99.256;2024-02-23T14:20:17;19.95;;;9.23;;
20954;SDS011;10636;19.390;-99.256;2024-02-23T14:22:46;12.77;;;9.38;;
20954;SDS011;10636;19.390;-99.256;2024-02-23T14:25:17;16.73;;;11.68;;
20954;SDS011;10636;19.390;-99.256;2024-02-23T14:27:46;16.00;;;12.20;;
20954;SDS011;10636;19.390;-99.256;2024-02-23T14:30:17;16.00;;;12.65;;
20954;SDS011;10636;19.390;-99.256;2024-02-23T14:32:47;19.67;;;13.45;;